Time;durP1;ratioP1;P1;durP2;ratioP2;P2;SDS_P1;SDS_P2;PMS_P1;PMS_P2;Temp;Humidity;BMP_temperature;BMP_pressure;BME280_temperature;BME280_humidity;BME280_pressure;Samples;Min_cycle;Max_cycle;Signal;HPM_P1;HPM_P2
2021/12/13 00:00:34;;;;;;;24.80;11.18;;;;;;;;;;5033543;28;20142;-85
2021/12/13 00:03:23;;;;;;;27.70;10.90;;;;;;;;;;5033565;28;20384;-86
2021/12/13 00:05:55;;;;;;;26.77;10.95;;;;;;;;;;5034568;28;20041;-85
2021/12/13 00:08:25;;;;;;;23.25;10.60;;;;;;;;;;5033318;28;20404;-85
2021/12/13 00:10:53;;;;;;;25.10;10.52;;;;;;;;;;5032693;28;20133;-86
2021/12/13 00:13:26;;;;;;;28.15;11.45;;;;;;;;;;5016794;28;20492;-86
2021/12/13 00:16:01;;;;;;;22.90;10.35;;;;;;;;;;5032897;28;20115;-85
2021/12/13 00:18:29;;;;;;;25.15;11.02;;;;;;;;;;5035054;28;20038;-86
2021/12/13 00:21:05;;;;;;;22.42;9.27;;;;;;;;;;5032904;28;20041;-86
2021/12/13 00:23:33;;;;;;;23.45;10.75;;;;;;;;;;5034531;28;20041;-86
2021/12/13 00:26:00;;;;;;;23.40;10.70;;;;;;;;;;5032888;28;20420;-87
2021/12/13 00:28:31;;;;;;;24.13;10.35;;;;;;;;;;5034447;28;20559;-85
2021/12/13 00:31:01;;;;;;;27.70;11.25;;;;;;;;;;5032990;28;20124;-85
2021/12/13 00:33:45;;;;;;;29.83;12.07;;;;;;;;;;5033454;28;20520;-86
2021/12/13 00:36:24;;;;;;;27.38;12.00;;;;;;;;;;5032501;28;20068;-85
2021/12/13 00:39:06;;;;;;;25.60;12.20;;;;;;;;;;5034292;28;20033;-86
2021/12/13 00:41:35;;;;;;;30.13;12.95;;;;;;;;;;5034060;28;20437;-86
2021/12/13 00:44:06;;;;;;;27.38;12.63;;;;;;;;;;5016152;28;20048;-86
2021/12/13 00:46:32;;;;;;;30.98;12.90;;;;;;;;;;5033768;28;20037;-86
2021/12/13 00:48:59;;;;;;;26.10;12.63;;;;;;;;;;5033823;28;20086;-86
2021/12/13 00:51:30;;;;;;;32.78;13.95;;;;;;;;;;5033596;28;20045;-85
2021/12/13 00:53:58;;;;;;;36.22;14.27;;;;;;;;;;5033695;28;20112;-86
2021/12/13 00:56:42;;;;;;;36.05;13.75;;;;;;;;;;5033593;28;20037;-86
2021/12/13 00:59:08;;;;;;;34.80;15.45;;;;;;;;;;5033758;28;20493;-86
2021/12/13 01:01:35;;;;;;;41.42;15.02;;;;;;;;;;5032181;28;20471;-86
2021/12/13 01:04:04;;;;;;;43.45;16.92;;;;;;;;;;5032486;28;20041;-85
2021/12/13 01:06:37;;;;;;;44.47;16.92;;;;;;;;;;5032359;28;20120;-86
2021/12/13 01:09:09;;;;;;;49.42;17.38;;;;;;;;;;5032466;28;20045;-86
2021/12/13 01:11:39;;;;;;;52.00;19.08;;;;;;;;;;5032263;28;20507;-85
2021/12/13 01:14:08;;;;;;;57.22;20.35;;;;;;;;;;5032325;28;20437;-86
2021/12/13 01:16:51;;;;;;;59.42;20.58;;;;;;;;;;5032133;28;20146;-86
2021/12/13 01:19:29;;;;;;;59.85;19.92;;;;;;;;;;5032717;28;20045;-86
2021/12/13 01:22:16;;;;;;;68.65;22.15;;;;;;;;;;5031920;28;20045;-85
2021/12/13 01:27:34;;;;;;;73.13;23.77;;;;;;;;;;5031675;28;20146;-86
2021/12/13 01:30:00;;;;;;;76.38;22.45;;;;;;;;;;5034032;28;20072;-89
2021/12/13 01:32:35;;;;;;;85.60;23.25;;;;;;;;;;5031856;28;20053;-85
2021/12/13 01:35:01;;;;;;;82.85;23.45;;;;;;;;;;5031994;28;20064;-85
2021/12/13 01:37:31;;;;;;;66.53;22.58;;;;;;;;;;5031863;28;20354;-85
2021/12/13 01:39:57;;;;;;;86.10;22.83;;;;;;;;;;5032010;28;20056;-85
2021/12/13 01:42:25;;;;;;;82.80;23.27;;;;;;;;;;5031560;28;20041;-86
2021/12/13 01:44:53;;;;;;;74.63;22.40;;;;;;;;;;5031943;28;20392;-86
2021/12/13 01:47:22;;;;;;;66.53;20.60;;;;;;;;;;5031433;28;20129;-86
2021/12/13 01:49:52;;;;;;;62.13;20.85;;;;;;;;;;5031646;28;20041;-86
2021/12/13 01:52:23;;;;;;;68.95;21.05;;;;;;;;;;5015161;28;20416;-85
2021/12/13 01:54:49;;;;;;;51.80;18.75;;;;;;;;;;5031935;28;20051;-85
2021/12/13 01:57:39;;;;;;;50.75;17.42;;;;;;;;;;5032631;28;20037;-85
2021/12/13 02:00:18;;;;;;;39.67;16.38;;;;;;;;;;5031579;28;20046;-85
2021/12/13 02:02:44;;;;;;;38.70;14.98;;;;;;;;;;5014793;28;20124;-85
2021/12/13 02:05:12;;;;;;;36.35;15.00;;;;;;;;;;5032810;28;20081;-85
2021/12/13 02:07:43;;;;;;;32.97;13.27;;;;;;;;;;5031352;28;20224;-85
2021/12/13 02:10:13;;;;;;;33.60;13.90;;;;;;;;;;5032938;28;20095;-86
2021/12/13 02:12:42;;;;;;;34.30;13.32;;;;;;;;;;5032401;28;20053;-86
2021/12/13 02:17:54;;;;;;;24.58;11.63;;;;;;;;;;5032747;28;20116;-85
2021/12/13 02:20:26;;;;;;;25.75;11.85;;;;;;;;;;5031305;28;20045;-85
2021/12/13 02:22:53;;;;;;;28.08;11.98;;;;;;;;;;5032237;28;20037;-85
2021/12/13 02:25:25;;;;;;;28.80;11.98;;;;;;;;;;5031107;28;20042;-85
2021/12/13 02:28:02;;;;;;;27.00;12.23;;;;;;;;;;5031116;28;20053;-85
2021/12/13 02:30:32;;;;;;;26.25;11.55;;;;;;;;;;5032796;28;20073;-86
2021/12/13 02:32:58;;;;;;;25.92;11.55;;;;;;;;;;5032281;28;20041;-85
2021/12/13 02:35:26;;;;;;;24.85;11.13;;;;;;;;;;5033514;28;20049;-86
2021/12/13 02:37:52;;;;;;;24.27;13.02;;;;;;;;;;5036337;28;20037;-86
2021/12/13 02:40:20;;;;;;;22.83;12.23;;;;;;;;;;5036322;28;20378;-85
2021/12/13 02:42:46;;;;;;;24.88;12.48;;;;;;;;;;5035004;28;20044;-85
2021/12/13 02:45:17;;;;;;;26.88;13.18;;;;;;;;;;5034905;28;20037;-87
2021/12/13 02:47:45;;;;;;;24.35;13.20;;;;;;;;;;5034903;28;20049;-86
2021/12/13 02:50:14;;;;;;;25.25;15.38;;;;;;;;;;5034799;28;20488;-86
2021/12/13 02:52:41;;;;;;;29.83;15.45;;;;;;;;;;5034677;28;20095;-89
2021/12/13 02:55:10;;;;;;;30.60;15.20;;;;;;;;;;5035111;28;20504;-85
2021/12/13 02:57:38;;;;;;;31.23;15.52;;;;;;;;;;5034727;28;20098;-86
2021/12/13 03:00:25;;;;;;;33.47;16.77;;;;;;;;;;5034800;28;20060;-85
2021/12/13 03:02:53;;;;;;;31.45;16.83;;;;;;;;;;5035919;28;20076;-86
2021/12/13 03:05:21;;;;;;;32.13;16.25;;;;;;;;;;5034776;28;20052;-85
2021/12/13 03:07:51;;;;;;;32.95;16.05;;;;;;;;;;5035660;28;20059;-86
2021/12/13 03:10:20;;;;;;;31.90;15.63;;;;;;;;;;5034686;28;20049;-86
2021/12/13 03:12:47;;;;;;;31.27;15.82;;;;;;;;;;5035641;28;20044;-85
2021/12/13 03:15:16;;;;;;;32.90;15.52;;;;;;;;;;5034546;28;20049;-86
2021/12/13 03:18:09;;;;;;;29.48;15.20;;;;;;;;;;5035621;28;20044;-85
2021/12/13 03:20:44;;;;;;;24.65;14.02;;;;;;;;;;5011751;28;20053;-85
2021/12/13 03:23:29;;;;;;;31.63;13.82;;;;;;;;;;5033999;28;20449;-85
2021/12/13 03:26:15;;;;;;;21.63;12.23;;;;;;;;;;5034087;28;20149;-86
2021/12/13 03:28:59;;;;;;;26.75;12.63;;;;;;;;;;5035191;28;20477;-87
2021/12/13 03:31:27;;;;;;;27.00;12.02;;;;;;;;;;5034028;28;20049;-85
2021/12/13 03:33:56;;;;;;;24.55;12.02;;;;;;;;;;5017537;28;20049;-85
2021/12/13 03:36:36;;;;;;;24.65;13.32;;;;;;;;;;5034070;28;20523;-86
2021/12/13 03:39:02;;;;;;;31.42;11.52;;;;;;;;;;5035300;28;20049;-85
2021/12/13 03:41:28;;;;;;;22.33;11.93;;;;;;;;;;5033929;28;20045;-85
2021/12/13 03:44:03;;;;;;;29.65;12.30;;;;;;;;;;5034781;28;20083;-86
2021/12/13 03:46:33;;;;;;;27.15;11.90;;;;;;;;;;5032713;28;20048;-86
2021/12/13 03:49:00;;;;;;;32.45;12.25;;;;;;;;;;5033491;28;20064;-86
2021/12/13 03:51:32;;;;;;;23.00;11.73;;;;;;;;;;5035212;28;20041;-85
2021/12/13 03:53:58;;;;;;;24.00;11.55;;;;;;;;;;5033526;28;20037;-85
2021/12/13 03:56:28;;;;;;;24.73;10.63;;;;;;;;;;5033564;28;20041;-85
2021/12/13 03:58:57;;;;;;;24.20;10.43;;;;;;;;;;5034875;28;20041;-85
2021/12/13 04:01:28;;;;;;;27.88;10.25;;;;;;;;;;5033509;28;20203;-85
2021/12/13 04:03:55;;;;;;;20.45;9.82;;;;;;;;;;5034580;28;20041;-86
2021/12/13 04:06:22;;;;;;;22.40;8.73;;;;;;;;;;5033325;28;20150;-85
2021/12/13 04:08:52;;;;;;;22.58;9.40;;;;;;;;;;5016895;28;20447;-85
2021/12/13 04:11:20;;;;;;;16.95;8.63;;;;;;;;;;5034704;28;20045;-85
2021/12/13 04:13:49;;;;;;;18.50;8.02;;;;;;;;;;5032930;28;20450;-85
2021/12/13 04:16:30;;;;;;;20.17;8.77;;;;;;;;;;5033060;28;20049;-85
2021/12/13 04:21:39;;;;;;;19.45;8.13;;;;;;;;;;5034379;28;20044;-86
2021/12/13 04:24:07;;;;;;;16.92;8.10;;;;;;;;;;5034300;28;20037;-85
2021/12/13 04:26:37;;;;;;;19.17;6.82;;;;;;;;;;5034238;28;20053;-84
2021/12/13 04:29:04;;;;;;;15.73;7.03;;;;;;;;;;5033243;28;20049;-85
2021/12/13 04:31:37;;;;;;;14.43;6.72;;;;;;;;;;5034146;28;20043;-86
2021/12/13 04:34:04;;;;;;;14.82;6.35;;;;;;;;;;5032538;28;20046;-86
2021/12/13 04:36:32;;;;;;;12.13;5.35;;;;;;;;;;5034207;28;20045;-86
2021/12/13 04:39:03;;;;;;;17.88;6.40;;;;;;;;;;5033933;28;20052;-86
2021/12/13 04:41:32;;;;;;;11.05;5.43;;;;;;;;;;5033063;28;20125;-86
2021/12/13 04:44:10;;;;;;;16.63;5.63;;;;;;;;;;5033684;28;20462;-86
2021/12/13 04:46:38;;;;;;;15.32;5.40;;;;;;;;;;5034057;28;20041;-86
2021/12/13 04:49:08;;;;;;;12.23;5.85;;;;;;;;;;5032684;28;20037;-86
2021/12/13 04:51:53;;;;;;;12.60;5.65;;;;;;;;;;5033995;28;20041;-85
2021/12/13 04:54:20;;;;;;;11.32;5.38;;;;;;;;;;5032295;28;20077;-86
2021/12/13 04:56:47;;;;;;;14.82;5.78;;;;;;;;;;5033716;28;20033;-86
2021/12/13 04:59:15;;;;;;;12.30;5.32;;;;;;;;;;5032350;28;20073;-85
2021/12/13 05:01:44;;;;;;;16.23;5.88;;;;;;;;;;5032337;28;20126;-85
2021/12/13 05:04:10;;;;;;;11.50;5.65;;;;;;;;;;5033493;28;20042;-85
2021/12/13 05:06:38;;;;;;;13.43;5.32;;;;;;;;;;5032337;28;20069;-86
2021/12/13 05:09:06;;;;;;;11.52;5.65;;;;;;;;;;5033605;28;20041;-85
2021/12/13 05:11:34;;;;;;;11.43;5.43;;;;;;;;;;5033518;28;20041;-85
2021/12/13 05:14:01;;;;;;;12.50;5.72;;;;;;;;;;5032043;28;20076;-86
2021/12/13 05:16:47;;;;;;;13.15;5.78;;;;;;;;;;5033540;28;20039;-86
2021/12/13 05:19:15;;;;;;;12.82;6.05;;;;;;;;;;5033076;28;20045;-86
2021/12/13 05:21:49;;;;;;;14.50;6.43;;;;;;;;;;5031912;28;20568;-86
2021/12/13 05:24:19;;;;;;;14.40;6.55;;;;;;;;;;5033250;28;20041;-85
2021/12/13 05:26:45;;;;;;;16.08;6.82;;;;;;;;;;5015477;28;20135;-86
2021/12/13 05:29:23;;;;;;;16.17;6.70;;;;;;;;;;5015258;28;20121;-85
2021/12/13 05:31:54;;;;;;;14.52;6.68;;;;;;;;;;5031840;28;20546;-86
2021/12/13 05:34:20;;;;;;;18.63;6.97;;;;;;;;;;5031373;28;20124;-85
2021/12/13 05:36:54;;;;;;;15.85;7.13;;;;;;;;;;5033280;28;20095;-85
2021/12/13 05:39:20;;;;;;;17.23;7.10;;;;;;;;;;5032917;28;20476;-85
2021/12/13 05:42:12;;;;;;;14.35;7.20;;;;;;;;;;5031997;28;20068;-85
2021/12/13 05:44:43;;;;;;;14.40;6.68;;;;;;;;;;5029002;28;20049;-86
2021/12/13 05:47:17;;;;;;;16.10;7.53;;;;;;;;;;5031939;28;20099;-85
2021/12/13 05:49:44;;;;;;;13.73;6.88;;;;;;;;;;5031453;28;20045;-86
2021/12/13 05:52:13;;;;;;;11.60;7.13;;;;;;;;;;5031616;28;20037;-85
2021/12/13 05:54:44;;;;;;;15.07;7.53;;;;;;;;;;5031476;28;20045;-86
2021/12/13 05:57:10;;;;;;;17.00;7.13;;;;;;;;;;5031862;28;20116;-85
2021/12/13 05:59:52;;;;;;;14.95;7.00;;;;;;;;;;5031709;28;20512;-85
2021/12/13 06:02:28;;;;;;;15.05;7.50;;;;;;;;;;5031378;28;20041;-84
2021/12/13 06:04:56;;;;;;;15.48;7.53;;;;;;;;;;5031267;28;20091;-84
2021/12/13 06:07:24;;;;;;;11.55;6.97;;;;;;;;;;5031855;28;20078;-84
2021/12/13 06:09:58;;;;;;;13.05;6.88;;;;;;;;;;5033016;28;20045;-85
2021/12/13 06:12:28;;;;;;;16.20;7.28;;;;;;;;;;5037005;28;20437;-87
2021/12/13 06:14:55;;;;;;;16.50;7.10;;;;;;;;;;5035422;28;20511;-85
2021/12/13 06:17:27;;;;;;;14.63;7.53;;;;;;;;;;5036897;28;20033;-84
2021/12/13 06:20:01;;;;;;;14.30;7.57;;;;;;;;;;5018985;28;20128;-85
2021/12/13 06:22:29;;;;;;;13.02;6.90;;;;;;;;;;5036349;28;20499;-85
2021/12/13 06:24:57;;;;;;;16.25;7.88;;;;;;;;;;5035002;28;20053;-84
2021/12/13 06:27:31;;;;;;;17.33;8.07;;;;;;;;;;5035033;28;20531;-85
2021/12/13 06:29:59;;;;;;;14.75;8.07;;;;;;;;;;5035066;28;20056;-85
2021/12/13 06:32:27;;;;;;;13.48;7.45;;;;;;;;;;5036480;28;20037;-85
2021/12/13 06:34:53;;;;;;;16.23;8.05;;;;;;;;;;5034943;28;20129;-85
2021/12/13 06:37:24;;;;;;;20.80;8.18;;;;;;;;;;5035427;28;20481;-89
2021/12/13 06:39:50;;;;;;;16.83;7.85;;;;;;;;;;5035128;28;20041;-82
2021/12/13 06:42:17;;;;;;;14.20;8.15;;;;;;;;;;5035152;28;20395;-85
2021/12/13 06:44:45;;;;;;;16.20;8.02;;;;;;;;;;5036294;28;20124;-91
2021/12/13 06:47:14;;;;;;;14.20;8.43;;;;;;;;;;5034812;28;20044;-84
2021/12/13 06:49:59;;;;;;;15.15;8.40;;;;;;;;;;5018228;28;20047;-84
2021/12/13 06:52:32;;;;;;;13.63;8.13;;;;;;;;;;5035943;28;20516;-84
2021/12/13 06:54:58;;;;;;;14.20;8.25;;;;;;;;;;5035940;28;20049;-84
2021/12/13 06:57:30;;;;;;;14.02;7.80;;;;;;;;;;5034681;28;20041;-84
2021/12/13 06:59:56;;;;;;;16.58;8.13;;;;;;;;;;5018008;28;20046;-84
2021/12/13 07:02:40;;;;;;;14.63;8.50;;;;;;;;;;5034530;28;20039;-84
2021/12/13 07:05:06;;;;;;;15.65;8.23;;;;;;;;;;5034290;28;20511;-84
2021/12/13 07:07:51;;;;;;;15.02;7.55;;;;;;;;;;5032397;28;20142;-84
2021/12/13 07:10:20;;;;;;;14.52;8.30;;;;;;;;;;5032094;28;20049;-84
2021/12/13 07:12:51;;;;;;;16.15;8.55;;;;;;;;;;5030963;28;20045;-84
2021/12/13 07:15:25;;;;;;;13.57;7.95;;;;;;;;;;5030783;28;20045;-84
2021/12/13 07:18:06;;;;;;;14.57;8.07;;;;;;;;;;5031071;28;20484;-85
2021/12/13 07:20:40;;;;;;;12.40;7.85;;;;;;;;;;5030730;28;20049;-85
2021/12/13 07:23:06;;;;;;;13.60;8.45;;;;;;;;;;5031053;28;20069;-84
2021/12/13 07:25:40;;;;;;;14.55;8.15;;;;;;;;;;5030553;28;20077;-85
2021/12/13 07:28:08;;;;;;;16.25;8.80;;;;;;;;;;5032474;28;20049;-84
2021/12/13 07:30:36;;;;;;;15.02;8.60;;;;;;;;;;5031774;28;20041;-84
2021/12/13 07:33:04;;;;;;;16.85;9.68;;;;;;;;;;5014233;28;20512;-84
2021/12/13 07:35:30;;;;;;;16.23;9.02;;;;;;;;;;5031926;28;20103;-85
2021/12/13 07:38:01;;;;;;;16.38;9.77;;;;;;;;;;5032130;28;20037;-84
2021/12/13 07:40:38;;;;;;;17.60;9.93;;;;;;;;;;5030668;28;20046;-84
2021/12/13 07:43:23;;;;;;;18.60;10.70;;;;;;;;;;5030792;28;20045;-85
2021/12/13 07:45:53;;;;;;;17.88;11.25;;;;;;;;;;5030513;28;20080;-83
2021/12/13 07:48:29;;;;;;;20.10;11.55;;;;;;;;;;5030366;28;20535;-84
2021/12/13 07:51:06;;;;;;;18.10;11.13;;;;;;;;;;5031623;28;20076;-85
2021/12/13 07:53:42;;;;;;;20.60;11.98;;;;;;;;;;5030629;28;20554;-85
2021/12/13 07:56:10;;;;;;;19.08;12.07;;;;;;;;;;5031126;28;20037;-84
2021/12/13 07:58:40;;;;;;;22.27;13.13;;;;;;;;;;5030295;28;20052;-85
2021/12/13 08:01:16;;;;;;;20.73;12.82;;;;;;;;;;5030063;28;20395;-84
2021/12/13 08:03:46;;;;;;;21.98;12.07;;;;;;;;;;5031542;28;20193;-84
2021/12/13 08:06:12;;;;;;;19.35;12.85;;;;;;;;;;5030138;28;20397;-84
2021/12/13 08:08:45;;;;;;;25.60;15.10;;;;;;;;;;5030051;28;20049;-84
2021/12/13 08:11:11;;;;;;;20.63;13.18;;;;;;;;;;5031407;28;20045;-84
2021/12/13 08:13:37;;;;;;;23.20;13.88;;;;;;;;;;5029882;28;20049;-85
2021/12/13 08:16:03;;;;;;;20.60;13.45;;;;;;;;;;5030916;28;20076;-85
2021/12/13 08:18:30;;;;;;;24.92;14.50;;;;;;;;;;5030139;28;20068;-85
2021/12/13 08:20:56;;;;;;;21.48;13.55;;;;;;;;;;5029585;28;20095;-84
2021/12/13 08:23:27;;;;;;;24.92;15.00;;;;;;;;;;5029933;28;20045;-85
2021/12/13 08:25:55;;;;;;;24.35;15.32;;;;;;;;;;5029578;28;20068;-85
2021/12/13 08:28:30;;;;;;;25.75;15.73;;;;;;;;;;5029900;28;20060;-84
2021/12/13 08:30:59;;;;;;;26.00;16.63;;;;;;;;;;5031019;28;20046;-84
2021/12/13 08:33:33;;;;;;;27.35;16.20;;;;;;;;;;5028812;28;20052;-85
2021/12/13 08:36:07;;;;;;;27.20;17.37;;;;;;;;;;5028988;28;20050;-84
2021/12/13 08:38:33;;;;;;;23.13;16.02;;;;;;;;;;5029504;28;20049;-86
2021/12/13 08:41:02;;;;;;;26.15;17.33;;;;;;;;;;5012834;28;20033;-84
2021/12/13 08:43:46;;;;;;;24.33;16.60;;;;;;;;;;5030557;28;20045;-85
2021/12/13 08:46:13;;;;;;;27.48;17.02;;;;;;;;;;5030716;28;20038;-84
2021/12/13 08:48:47;;;;;;;26.77;17.80;;;;;;;;;;5029488;28;20072;-85
2021/12/13 08:51:16;;;;;;;24.35;17.08;;;;;;;;;;5015444;28;20105;-84
2021/12/13 08:53:42;;;;;;;30.05;18.80;;;;;;;;;;5032705;28;20045;-85
2021/12/13 08:56:11;;;;;;;30.20;18.88;;;;;;;;;;5032196;28;20046;-85
2021/12/13 08:58:49;;;;;;;26.52;19.30;;;;;;;;;;5032370;28;20083;-85
2021/12/13 09:01:16;;;;;;;26.13;18.77;;;;;;;;;;5015657;28;20042;-85
2021/12/13 09:03:52;;;;;;;27.77;20.10;;;;;;;;;;5033552;28;20303;-84
2021/12/13 09:06:18;;;;;;;27.70;20.40;;;;;;;;;;5032133;28;20213;-86
2021/12/13 09:08:46;;;;;;;31.02;19.98;;;;;;;;;;5032165;28;20336;-85
2021/12/13 09:11:15;;;;;;;27.75;19.05;;;;;;;;;;5032241;28;20049;-85
2021/12/13 09:13:44;;;;;;;27.52;19.55;;;;;;;;;;5033454;28;20049;-85
2021/12/13 09:16:11;;;;;;;33.67;21.35;;;;;;;;;;5031781;28;20051;-85
2021/12/13 09:18:38;;;;;;;32.47;21.48;;;;;;;;;;5032090;28;20083;-85
2021/12/13 09:21:06;;;;;;;29.35;19.50;;;;;;;;;;5033133;28;20124;-85
2021/12/13 09:23:37;;;;;;;27.80;20.48;;;;;;;;;;5032072;28;20322;-84
2021/12/13 09:26:06;;;;;;;29.67;21.10;;;;;;;;;;5031822;28;20065;-85
2021/12/13 09:28:34;;;;;;;33.67;21.63;;;;;;;;;;5033139;28;20183;-85
2021/12/13 09:31:03;;;;;;;30.08;20.45;;;;;;;;;;5032985;28;20041;-85
2021/12/13 09:33:31;;;;;;;30.67;20.17;;;;;;;;;;5031733;28;20037;-85
2021/12/13 09:36:08;;;;;;;32.50;20.88;;;;;;;;;;5032695;28;20390;-84
2021/12/13 09:38:33;;;;;;;29.48;19.95;;;;;;;;;;5031824;28;20068;-86
2021/12/13 09:40:59;;;;;;;28.83;19.95;;;;;;;;;;5031492;28;20080;-84
2021/12/13 09:43:34;;;;;;;29.35;20.23;;;;;;;;;;5032660;28;20049;-84
2021/12/13 09:46:00;;;;;;;29.23;19.38;;;;;;;;;;5031513;28;20519;-85
2021/12/13 09:48:33;;;;;;;30.50;19.48;;;;;;;;;;5031611;28;20388;-84
2021/12/13 09:51:02;;;;;;;27.92;19.70;;;;;;;;;;5033161;28;20072;-86
2021/12/13 09:53:34;;;;;;;27.13;18.27;;;;;;;;;;5032945;28;20071;-85
2021/12/13 09:56:02;;;;;;;28.95;19.10;;;;;;;;;;5032979;28;20046;-85
2021/12/13 09:58:40;;;;;;;28.30;19.08;;;;;;;;;;5032038;28;20073;-85
2021/12/13 10:01:11;;;;;;;24.35;16.65;;;;;;;;;;5032909;28;20044;-86
2021/12/13 10:03:55;;;;;;;26.38;18.58;;;;;;;;;;5032837;28;20042;-85
2021/12/13 10:06:35;;;;;;;24.27;16.88;;;;;;;;;;5032727;28;20048;-86
2021/12/13 10:09:07;;;;;;;27.10;17.48;;;;;;;;;;5032865;28;20098;-85
2021/12/13 10:11:33;;;;;;;25.02;17.90;;;;;;;;;;5032634;28;20072;-86
2021/12/13 10:13:59;;;;;;;23.50;15.88;;;;;;;;;;5032637;28;20038;-85
2021/12/13 10:16:28;;;;;;;23.70;16.40;;;;;;;;;;5031007;28;20037;-85
2021/12/13 10:18:55;;;;;;;24.92;16.50;;;;;;;;;;5032483;28;20481;-86
2021/12/13 10:21:27;;;;;;;23.73;16.58;;;;;;;;;;5032573;28;20041;-85
2021/12/13 10:23:55;;;;;;;23.48;16.48;;;;;;;;;;5031146;28;20124;-85
2021/12/13 10:26:21;;;;;;;24.02;14.90;;;;;;;;;;5030983;28;20069;-85
2021/12/13 10:28:55;;;;;;;22.13;14.95;;;;;;;;;;5015134;28;20041;-85
2021/12/13 10:31:26;;;;;;;22.67;15.30;;;;;;;;;;5032614;28;20408;-85
2021/12/13 10:33:53;;;;;;;23.08;15.15;;;;;;;;;;5032636;28;20115;-85
2021/12/13 10:36:20;;;;;;;23.35;15.80;;;;;;;;;;5031028;28;20068;-90
2021/12/13 10:38:48;;;;;;;23.08;15.25;;;;;;;;;;5031164;28;20453;-84
2021/12/13 10:41:21;;;;;;;24.77;15.10;;;;;;;;;;5014805;28;20069;-85
2021/12/13 10:43:52;;;;;;;21.85;14.48;;;;;;;;;;5032392;28;20045;-81
2021/12/13 10:46:21;;;;;;;23.95;14.93;;;;;;;;;;5031165;28;20041;-85
2021/12/13 10:48:51;;;;;;;22.98;14.00;;;;;;;;;;5032016;28;20042;-85
2021/12/13 10:51:23;;;;;;;22.27;14.98;;;;;;;;;;5031262;28;20124;-85
2021/12/13 10:53:49;;;;;;;21.55;13.32;;;;;;;;;;5014754;28;20362;-85
2021/12/13 10:56:18;;;;;;;23.77;14.27;;;;;;;;;;5032939;28;20073;-85
2021/12/13 10:58:46;;;;;;;21.23;14.63;;;;;;;;;;5034669;28;20512;-85
2021/12/13 11:01:23;;;;;;;22.35;13.57;;;;;;;;;;5034572;28;20037;-86
2021/12/13 11:03:50;;;;;;;20.13;13.48;;;;;;;;;;5034597;28;20037;-86
2021/12/13 11:06:17;;;;;;;23.73;14.27;;;;;;;;;;5034483;28;20056;-85
2021/12/13 11:08:43;;;;;;;22.00;14.50;;;;;;;;;;5035779;28;20060;-85
2021/12/13 11:11:17;;;;;;;25.73;13.93;;;;;;;;;;5034917;28;20049;-86
2021/12/13 11:13:43;;;;;;;20.02;13.40;;;;;;;;;;5034178;28;20052;-85
2021/12/13 11:16:14;;;;;;;21.75;13.98;;;;;;;;;;5035895;28;20037;-85
2021/12/13 11:18:41;;;;;;;20.92;13.15;;;;;;;;;;5038144;28;20047;-86
2021/12/13 11:21:12;;;;;;;19.17;13.00;;;;;;;;;;5035645;28;20095;-85
2021/12/13 11:23:38;;;;;;;21.63;13.40;;;;;;;;;;5035441;28;20060;-85
2021/12/13 11:26:06;;;;;;;20.10;12.57;;;;;;;;;;5034202;28;20057;-86
2021/12/13 11:28:33;;;;;;;19.13;12.75;;;;;;;;;;5035069;28;20045;-87
2021/12/13 11:31:01;;;;;;;20.75;12.32;;;;;;;;;;5034329;28;20400;-86
2021/12/13 11:33:56;;;;;;;22.90;13.05;;;;;;;;;;5035113;28;20171;-88
2021/12/13 11:36:31;;;;;;;21.65;13.32;;;;;;;;;;5033921;28;20045;-87
2021/12/13 11:39:03;;;;;;;19.67;12.88;;;;;;;;;;5034000;28;20037;-85
2021/12/13 11:41:43;;;;;;;20.20;12.65;;;;;;;;;;5033788;28;20052;-86
2021/12/13 11:44:12;;;;;;;24.52;13.88;;;;;;;;;;5033776;28;20052;-86
2021/12/13 11:46:57;;;;;;;22.10;12.90;;;;;;;;;;5033755;28;20047;-86
2021/12/13 11:49:32;;;;;;;21.50;12.70;;;;;;;;;;5034965;28;20080;-86
2021/12/13 11:52:17;;;;;;;22.48;12.73;;;;;;;;;;5033974;28;20545;-86
2021/12/13 11:54:59;;;;;;;20.48;13.07;;;;;;;;;;5034778;28;20528;-85
2021/12/13 11:57:43;;;;;;;21.08;13.18;;;;;;;;;;5034991;28;20061;-87
2021/12/13 12:00:20;;;;;;;21.90;13.32;;;;;;;;;;5035029;28;20049;-86
2021/12/13 12:02:48;;;;;;;22.08;13.57;;;;;;;;;;5033609;28;20072;-85
2021/12/13 12:05:39;;;;;;;20.50;12.30;;;;;;;;;;5017402;28;20401;-86
2021/12/13 12:08:08;;;;;;;19.65;13.52;;;;;;;;;;5033409;28;20293;-85
2021/12/13 12:10:45;;;;;;;20.17;12.90;;;;;;;;;;5034827;28;20034;-86
2021/12/13 12:13:31;;;;;;;23.35;12.15;;;;;;;;;;5034442;28;20530;-86
2021/12/13 12:16:01;;;;;;;20.85;12.73;;;;;;;;;;5034437;28;20443;-86
2021/12/13 12:18:28;;;;;;;21.80;13.20;;;;;;;;;;5034211;28;20091;-86
2021/12/13 12:21:12;;;;;;;21.92;12.98;;;;;;;;;;5034421;28;20049;-86
2021/12/13 12:23:42;;;;;;;19.45;12.63;;;;;;;;;;5034341;28;20041;-86
2021/12/13 12:26:08;;;;;;;19.08;12.82;;;;;;;;;;5033179;28;20058;-86
2021/12/13 12:28:35;;;;;;;22.30;13.00;;;;;;;;;;5032734;28;20091;-85
2021/12/13 12:31:02;;;;;;;21.08;12.45;;;;;;;;;;5032921;28;20194;-86
2021/12/13 12:33:37;;;;;;;19.60;11.98;;;;;;;;;;5032650;28;20037;-86
2021/12/13 12:36:23;;;;;;;20.67;12.27;;;;;;;;;;5032845;28;20049;-86
2021/12/13 12:38:49;;;;;;;;;;;;;;;;;;5033342;28;20393;-85
2021/12/13 12:41:33;;;;;;;20.23;11.38;;;;;;;;;;5032741;28;19928;-86
2021/12/13 12:44:00;;;;;;;20.27;12.43;;;;;;;;;;5032420;28;20045;-86
2021/12/13 12:46:30;;;;;;;19.92;12.82;;;;;;;;;;5034160;28;20041;-86
2021/12/13 12:49:01;;;;;;;19.00;12.93;;;;;;;;;;5032515;28;20129;-86
2021/12/13 12:51:32;;;;;;;20.17;12.93;;;;;;;;;;5033920;28;20079;-86
2021/12/13 12:54:02;;;;;;;20.60;12.85;;;;;;;;;;5032339;28;20046;-86
2021/12/13 12:56:37;;;;;;;23.23;14.57;;;;;;;;;;5032749;28;20045;-86
2021/12/13 12:59:06;;;;;;;23.90;13.50;;;;;;;;;;5033767;28;20041;-85
2021/12/13 13:01:38;;;;;;;21.67;13.13;;;;;;;;;;5033717;28;20048;-86
2021/12/13 13:04:07;;;;;;;24.15;13.00;;;;;;;;;;5033640;28;20111;-86
2021/12/13 13:06:33;;;;;;;19.98;12.50;;;;;;;;;;5032075;28;20053;-86
2021/12/13 13:08:59;;;;;;;21.98;13.50;;;;;;;;;;5034338;28;20425;-85
2021/12/13 13:11:27;;;;;;;24.85;14.15;;;;;;;;;;5032065;28;20049;-86
2021/12/13 13:13:55;;;;;;;23.95;14.48;;;;;;;;;;5033441;28;20051;-86
2021/12/13 13:16:27;;;;;;;22.80;13.73;;;;;;;;;;5033252;28;20060;-86
2021/12/13 13:18:55;;;;;;;24.73;14.60;;;;;;;;;;5032145;28;20084;-86
2021/12/13 13:21:22;;;;;;;25.70;15.13;;;;;;;;;;5032045;28;20049;-86
2021/12/13 13:23:50;;;;;;;20.75;13.63;;;;;;;;;;5032220;28;20041;-86
2021/12/13 13:26:17;;;;;;;22.27;14.38;;;;;;;;;;5031584;28;20412;-85
2021/12/13 13:28:54;;;;;;;23.52;14.65;;;;;;;;;;5031949;28;20057;-85
2021/12/13 13:31:23;;;;;;;25.23;15.25;;;;;;;;;;5031757;28;20209;-85
2021/12/13 13:33:52;;;;;;;26.08;15.25;;;;;;;;;;5031743;28;20046;-86
2021/12/13 13:36:24;;;;;;;25.55;15.05;;;;;;;;;;5031854;28;20052;-88
2021/12/13 13:38:51;;;;;;;24.40;14.48;;;;;;;;;;5031753;28;20046;-86
2021/12/13 13:41:20;;;;;;;26.23;14.80;;;;;;;;;;5031768;28;20041;-88
2021/12/13 13:43:47;;;;;;;23.40;15.27;;;;;;;;;;5031578;28;20045;-87
2021/12/13 13:46:13;;;;;;;29.08;16.10;;;;;;;;;;5032601;28;20052;-87
2021/12/13 13:48:41;;;;;;;27.23;14.60;;;;;;;;;;5031862;28;20111;-86
2021/12/13 13:51:08;;;;;;;28.67;15.50;;;;;;;;;;5031333;28;20041;-87
2021/12/13 13:53:38;;;;;;;24.02;14.95;;;;;;;;;;5032822;28;20044;-86
2021/12/13 13:56:31;;;;;;;26.88;14.15;;;;;;;;;;5033055;28;20053;-88
2021/12/13 13:58:58;;;;;;;25.38;14.20;;;;;;;;;;5030825;28;20124;-87
2021/12/13 14:01:27;;;;;;;21.42;14.63;;;;;;;;;;5032722;28;20034;-87
2021/12/13 14:03:58;;;;;;;24.23;15.23;;;;;;;;;;5031333;28;20045;-86
2021/12/13 14:06:32;;;;;;;22.77;14.50;;;;;;;;;;5032204;28;20052;-87
2021/12/13 14:09:02;;;;;;;24.33;13.45;;;;;;;;;;5024848;28;20045;-88
2021/12/13 14:11:28;;;;;;;20.95;14.02;;;;;;;;;;5031310;28;20383;-86
2021/12/13 14:13:57;;;;;;;25.63;14.68;;;;;;;;;;5031335;28;20460;-86
2021/12/13 14:16:25;;;;;;;24.75;14.73;;;;;;;;;;5031116;28;20053;-86
2021/12/13 14:18:52;;;;;;;23.85;13.98;;;;;;;;;;5031648;28;20041;-85
2021/12/13 14:21:23;;;;;;;25.83;14.63;;;;;;;;;;5031136;28;20045;-86
2021/12/13 14:23:50;;;;;;;26.52;14.93;;;;;;;;;;5031472;28;20488;-85
2021/12/13 14:26:18;;;;;;;23.40;13.65;;;;;;;;;;5031164;28;20049;-86
2021/12/13 14:28:50;;;;;;;23.15;14.38;;;;;;;;;;5031320;28;20568;-86
2021/12/13 14:31:36;;;;;;;24.52;14.98;;;;;;;;;;5033300;28;20045;-86
2021/12/13 14:34:02;;;;;;;;;;;;;;;;;;5035559;28;20045;-85
2021/12/13 14:36:32;;;;;;;25.00;13.98;;;;;;;;;;5036330;28;20319;-86
2021/12/13 14:39:07;;;;;;;26.98;15.30;;;;;;;;;;5036512;28;20034;-86
2021/12/13 14:41:35;;;;;;;23.65;13.73;;;;;;;;;;5035064;28;20084;-86
2021/12/13 14:44:03;;;;;;;25.17;14.85;;;;;;;;;;5035120;28;20045;-85
2021/12/13 14:46:31;;;;;;;28.08;15.05;;;;;;;;;;5036568;28;20090;-85
2021/12/13 14:49:01;;;;;;;23.63;13.88;;;;;;;;;;5036316;28;20045;-86
2021/12/13 14:51:27;;;;;;;25.85;13.80;;;;;;;;;;5034971;28;20053;-85